»·PEaware :: N149CD KOXR-KSNA

N149CD :: KOXR-KSNA

FLIGHT INFORMATION

Flight Status: Arrived
Operator: Privately registered:
United States
More flights under this callsign
Pilot: Nathan E. (30132)
Aircraft: CIRRUS SR-22
(SR22)
More flights by this aircraft type
Origin: KOXR Oxnard
United States
Destination: KSNA John Wayne-Orange Co
United States
More flights between these airports :: More routes between these airports
Route: VTU044 GINNA V326 VNY V186 BAYJY V363 POXKU V8 SLI
File this flight plan on PilotEdge
Remarks: TEC route VTUP7
Altitude:
(Current/Filed)
5,000ft
Speed:
(Current/Filed)
170kts
Departed: 04-Jan-21 04:49 PM
Arrived: 04-Jan-21 05:46 PM
Distance/Time
Traveled:
74nm/0:57
Distance/Time
To Go:
Arrived

Flight Plot

Page will automatically refresh every two minutes.


Map Options




Map Legend


Flown Route
Filed Route
Departure Airport
Arrival Airport
Navaid (VOR, NDB)
Fix

Horizontal Profiles

Position Reports

Time Latitude Longitude Heading Altitude Ground
Speed
04-Jan-21 16:17 34.198999 -119.197762 269 42ft 0kts
04-Jan-21 16:17 34.198999 -119.197762 269 42ft 0kts
04-Jan-21 16:18 34.198999 -119.197762 269 42ft 0kts
04-Jan-21 16:20 34.198999 -119.197762 269 42ft 0kts
04-Jan-21 16:20 34.198999 -119.197762 269 42ft 0kts
04-Jan-21 16:26 34.198999 -119.197762 269 42ft 0kts
04-Jan-21 16:27 34.198999 -119.197762 269 42ft 0kts
04-Jan-21 16:28 34.198999 -119.197762 269 42ft 0kts
04-Jan-21 16:29 34.198999 -119.197762 269 42ft 0kts
04-Jan-21 16:30 34.198999 -119.197762 269 42ft 0kts
04-Jan-21 16:31 34.198999 -119.197762 269 42ft 0kts
04-Jan-21 16:32 34.198999 -119.197762 269 42ft 0kts
04-Jan-21 16:33 34.198999 -119.197762 269 42ft 0kts
04-Jan-21 16:34 34.198999 -119.197762 269 42ft 0kts
04-Jan-21 16:35 34.198999 -119.197762 269 42ft 0kts
04-Jan-21 16:36 34.198999 -119.197762 269 42ft 0kts
04-Jan-21 16:37 34.198999 -119.197762 269 42ft 0kts
04-Jan-21 16:38 34.198999 -119.197762 269 42ft 0kts
04-Jan-21 16:39 34.198999 -119.197762 269 42ft 0kts
04-Jan-21 16:40 34.198999 -119.197762 269 42ft 0kts
04-Jan-21 16:41 34.198999 -119.197762 269 42ft 0kts
04-Jan-21 16:42 34.198999 -119.197770 266 42ft 0kts
04-Jan-21 16:43 34.199858 -119.197306 278 42ft 0kts
04-Jan-21 16:44 34.199858 -119.197310 275 42ft 0kts
04-Jan-21 16:45 34.199858 -119.197310 275 42ft 0kts
04-Jan-21 16:46 34.199858 -119.197310 275 42ft 0kts
04-Jan-21 16:47 34.200637 -119.197547 351 42ft 10kts
04-Jan-21 16:48 34.200831 -119.223059 266 411ft 131kts
04-Jan-21 16:49 34.200227 -119.264982 267 1970ft 122kts
04-Jan-21 16:50 34.199236 -119.306856 267 3357ft 125kts
04-Jan-21 16:51 34.197164 -119.352857 267 4014ft 153kts
04-Jan-21 16:52 34.194393 -119.405103 267 4000ft 155kts
04-Jan-21 16:53 34.166291 -119.424842 123 4014ft 158kts
04-Jan-21 16:54 34.166643 -119.371781 80 4078ft 166kts
04-Jan-21 16:55 34.172105 -119.317651 79 4682ft 155kts
04-Jan-21 16:56 34.177690 -119.265136 79 5006ft 167kts
04-Jan-21 16:57 34.183604 -119.209125 78 4999ft 164kts
04-Jan-21 16:58 34.189386 -119.154453 78 5001ft 163kts
04-Jan-21 16:59 34.195180 -119.099442 78 5002ft 164kts
04-Jan-21 17:00 34.200947 -119.044436 78 5002ft 164kts
04-Jan-21 17:01 34.206715 -118.989201 78 5002ft 165kts
04-Jan-21 17:02 34.212465 -118.933866 78 5002ft 165kts
04-Jan-21 17:03 34.218183 -118.878585 78 5002ft 166kts
04-Jan-21 17:04 34.222968 -118.822972 84 5000ft 167kts
04-Jan-21 17:05 34.223128 -118.766376 85 4999ft 167kts
04-Jan-21 17:06 34.223241 -118.710361 84 4993ft 165kts
04-Jan-21 17:07 34.223333 -118.655172 84 4987ft 162kts
04-Jan-21 17:08 34.223678 -118.601171 93 4996ft 161kts
04-Jan-21 17:09 34.223483 -118.545858 93 4993ft 165kts
04-Jan-21 17:10 34.222766 -118.489718 110 4974ft 164kts
04-Jan-21 17:11 34.207207 -118.437965 114 4993ft 164kts
04-Jan-21 17:12 34.191373 -118.385750 113 4993ft 166kts
04-Jan-21 17:13 34.175334 -118.332949 114 4990ft 167kts
04-Jan-21 17:14 34.159196 -118.279920 114 4992ft 167kts
04-Jan-21 17:15 34.143065 -118.226984 114 4999ft 167kts
04-Jan-21 17:16 34.126745 -118.173525 114 5005ft 168kts
04-Jan-21 17:17 34.110035 -118.118906 114 5011ft 169kts
04-Jan-21 17:18 34.093454 -118.064811 114 5016ft 170kts
04-Jan-21 17:19 34.076682 -118.010217 113 5014ft 171kts
04-Jan-21 17:20 34.059784 -117.955312 112 5012ft 173kts
04-Jan-21 17:21 34.042846 -117.900360 111 4973ft 177kts
04-Jan-21 17:22 34.025592 -117.844485 110 4964ft 176kts
04-Jan-21 17:23 34.006655 -117.790064 141 4936ft 176kts
04-Jan-21 17:24 33.960685 -117.784613 181 4964ft 169kts
04-Jan-21 17:25 33.916422 -117.797904 211 4969ft 167kts
04-Jan-21 17:26 33.878144 -117.828427 221 4968ft 163kts
04-Jan-21 17:27 33.841481 -117.862711 221 4973ft 168kts
04-Jan-21 17:28 33.804669 -117.897359 221 4976ft 165kts
04-Jan-21 17:29 33.768710 -117.931576 221 4980ft 162kts
04-Jan-21 17:30 33.733489 -117.965323 221 4981ft 161kts
04-Jan-21 17:31 33.698044 -117.998885 221 4981ft 162kts
04-Jan-21 17:32 33.660278 -118.027203 174 4984ft 174kts
04-Jan-21 17:33 33.635432 -117.977096 111 4975ft 178kts
04-Jan-21 17:34 33.633390 -117.926852 24 4988ft 153kts
04-Jan-21 17:35 33.670867 -117.935054 333 4971ft 129kts
04-Jan-21 17:37 33.702942 -117.941572 18 4971ft 121kts
04-Jan-21 17:38 33.734934 -117.921844 21 4314ft 133kts
04-Jan-21 17:39 33.767348 -117.901591 23 3552ft 126kts
04-Jan-21 17:40 33.789912 -117.872489 73 3028ft 136kts
04-Jan-21 17:41 33.779390 -117.831828 142 1985ft 132kts
04-Jan-21 17:42 33.747989 -117.824274 198 1472ft 110kts
04-Jan-21 17:43 33.721120 -117.840026 207 1024ft 100kts
04-Jan-21 17:44 33.697198 -117.855239 208 467ft 88kts
04-Jan-21 17:45 33.677396 -117.867699 209 59ft 54kts
04-Jan-21 17:46 33.675860 -117.869551 297 59ft 0kts
04-Jan-21 17:47 33.676246 -117.870469 301 59ft 10kts
04-Jan-21 17:48 33.676175 -117.871074 205 59ft 0kts

Navigation Log

Ident Type
Flight plan parsing failed, navigation log unavailable